Time;durP1;ratioP1;P1;durP2;ratioP2;P2;SDS_P1;SDS_P2;PMS_P1;PMS_P2;Temp;Humidity;BMP_temperature;BMP_pressure;BME280_temperature;BME280_humidity;BME280_pressure;Samples;Min_cycle;Max_cycle;Signal;HPM_P1;HPM_P2
2023/07/05 00:02:10;;;;;;;13.05;8.30;;;;;;;;;;8268993;28;20149;-89
2023/07/05 00:06:13;;;;;;;11.55;7.78;;;;;;;;;;8269231;28;20051;-89
2023/07/05 00:10:16;;;;;;;15.30;8.73;;;;;;;;;;8268682;28;20102;-89
2023/07/05 00:14:19;;;;;;;11.85;7.72;;;;;;;;;;8256178;28;20058;-88
2023/07/05 00:18:24;;;;;;;13.70;7.80;;;;;;;;;;8269003;28;20080;-86
2023/07/05 00:22:27;;;;;;;11.70;7.40;;;;;;;;;;8269111;28;20050;-90
2023/07/05 00:26:29;;;;;;;15.02;8.75;;;;;;;;;;8269142;28;20042;-90
2023/07/05 00:30:32;;;;;;;13.77;7.93;;;;;;;;;;8268257;28;20067;-89
2023/07/05 00:34:37;;;;;;;16.17;8.23;;;;;;;;;;8268815;28;20046;-90
2023/07/05 00:38:40;;;;;;;14.95;8.35;;;;;;;;;;8268970;28;20590;-88
2023/07/05 00:42:42;;;;;;;13.15;7.82;;;;;;;;;;8255704;28;20076;-89
2023/07/05 00:46:49;;;;;;;14.35;8.60;;;;;;;;;;8268216;28;20066;-89
2023/07/05 00:50:56;;;;;;;12.45;8.00;;;;;;;;;;8268202;28;20054;-87
2023/07/05 00:54:59;;;;;;;13.98;7.88;;;;;;;;;;8268066;28;20054;-86
2023/07/05 00:59:03;;;;;;;13.57;7.43;;;;;;;;;;8267905;28;20133;-89
2023/07/05 01:03:12;;;;;;;11.80;7.50;;;;;;;;;;8250407;28;20100;-84
2023/07/05 01:07:18;;;;;;;15.35;7.63;;;;;;;;;;8267703;28;20055;-87
2023/07/05 01:11:29;;;;;;;13.55;7.85;;;;;;;;;;8267786;28;20419;-88
2023/07/05 01:15:38;;;;;;;15.20;8.93;;;;;;;;;;8267724;28;20058;-87
2023/07/05 01:20:02;;;;;;;13.50;8.30;;;;;;;;;;8257597;28;20074;-91
2023/07/05 01:24:30;;;;;;;12.98;7.53;;;;;;;;;;8264532;28;20056;-87
2023/07/05 01:28:56;;;;;;;12.25;7.80;;;;;;;;;;8242645;28;20479;-84
2023/07/05 01:33:04;;;;;;;16.92;8.27;;;;;;;;;;8242028;28;20065;-85
2023/07/05 01:37:08;;;;;;;13.23;8.27;;;;;;;;;;8254345;28;20505;-87
2023/07/05 01:41:11;;;;;;;14.05;7.80;;;;;;;;;;8262446;28;20592;-91
2023/07/05 01:45:14;;;;;;;16.08;8.73;;;;;;;;;;8253367;28;20046;-87
2023/07/05 01:49:31;;;;;;;12.65;8.32;;;;;;;;;;8248806;28;20487;-84
2023/07/05 01:53:38;;;;;;;15.60;7.85;;;;;;;;;;8237968;28;20122;-83
2023/07/05 01:57:45;;;;;;;14.23;7.93;;;;;;;;;;8244593;28;20042;-89
2023/07/05 02:01:48;;;;;;;13.75;8.13;;;;;;;;;;8257355;28;20110;-91
2023/07/05 02:05:54;;;;;;;11.75;7.55;;;;;;;;;;8266011;28;20046;-90
2023/07/05 02:09:56;;;;;;;12.75;7.75;;;;;;;;;;8265846;28;20058;-89
2023/07/05 02:13:59;;;;;;;17.80;8.38;;;;;;;;;;8252743;28;20050;-91
2023/07/05 02:18:02;;;;;;;14.38;7.93;;;;;;;;;;8265785;28;20084;-88
2023/07/05 02:22:07;;;;;;;15.13;8.88;;;;;;;;;;8252390;28;20077;-90
2023/07/05 02:26:10;;;;;;;11.95;7.18;;;;;;;;;;8246188;28;20168;-87
2023/07/05 02:30:14;;;;;;;12.63;7.57;;;;;;;;;;8252815;28;20506;-89
2023/07/05 02:34:16;;;;;;;11.70;7.20;;;;;;;;;;8265127;28;20057;-89
2023/07/05 02:38:21;;;;;;;13.50;8.05;;;;;;;;;;8252495;28;20054;-87
2023/07/05 02:42:24;;;;;;;12.82;7.55;;;;;;;;;;8256368;28;20054;-87
2023/07/05 02:46:29;;;;;;;13.32;7.68;;;;;;;;;;8255876;28;20137;-87
2023/07/05 02:50:32;;;;;;;13.23;6.68;;;;;;;;;;8265175;28;20133;-88
2023/07/05 02:54:36;;;;;;;12.02;6.65;;;;;;;;;;8268703;28;20081;-87
2023/07/05 02:58:39;;;;;;;9.25;6.47;;;;;;;;;;8271706;28;20128;-89
2023/07/05 03:02:41;;;;;;;14.25;6.80;;;;;;;;;;8272280;28;20478;-88
2023/07/05 03:06:44;;;;;;;10.05;6.47;;;;;;;;;;8271570;28;20054;-85
2023/07/05 03:10:49;;;;;;;11.95;7.13;;;;;;;;;;8271395;28;20525;-90
2023/07/05 03:14:52;;;;;;;10.45;6.35;;;;;;;;;;8267706;28;20146;-85
2023/07/05 03:18:55;;;;;;;12.20;7.05;;;;;;;;;;8262446;28;20051;-90
2023/07/05 03:22:58;;;;;;;11.25;6.68;;;;;;;;;;8271280;28;20133;-87
2023/07/05 03:27:02;;;;;;;10.63;6.60;;;;;;;;;;8271153;28;20058;-87
2023/07/05 03:31:08;;;;;;;11.05;6.45;;;;;;;;;;8269616;28;20426;-88
2023/07/05 03:35:11;;;;;;;13.05;7.20;;;;;;;;;;8261604;28;20058;-90
2023/07/05 03:39:15;;;;;;;12.80;7.47;;;;;;;;;;8268753;28;20092;-86
2023/07/05 03:43:19;;;;;;;11.82;7.15;;;;;;;;;;8270534;28;20129;-90
2023/07/05 03:47:22;;;;;;;14.55;6.78;;;;;;;;;;8270882;28;20465;-89
2023/07/05 03:51:25;;;;;;;16.10;7.25;;;;;;;;;;8270501;28;20627;-89
2023/07/05 03:55:28;;;;;;;13.65;6.72;;;;;;;;;;8270085;28;20133;-89
2023/07/05 03:59:32;;;;;;;12.73;6.80;;;;;;;;;;8268164;28;20129;-91
2023/07/05 04:03:36;;;;;;;12.70;7.00;;;;;;;;;;8268122;28;20054;-89
2023/07/05 04:07:38;;;;;;;12.30;7.30;;;;;;;;;;8257090;28;20137;-87
2023/07/05 04:11:41;;;;;;;12.32;7.10;;;;;;;;;;8269503;28;20050;-88
2023/07/05 04:15:46;;;;;;;12.68;7.18;;;;;;;;;;8258147;28;20432;-88
2023/07/05 04:19:48;;;;;;;15.13;8.05;;;;;;;;;;8248605;28;20133;-88
2023/07/05 04:23:51;;;;;;;14.82;8.05;;;;;;;;;;8269139;28;20417;-89
2023/07/05 04:27:54;;;;;;;15.20;8.07;;;;;;;;;;8256597;28;20379;-88
2023/07/05 04:31:58;;;;;;;16.00;8.80;;;;;;;;;;8269142;28;20060;-90
2023/07/05 04:36:02;;;;;;;21.48;8.85;;;;;;;;;;8268836;28;20473;-91
2023/07/05 04:40:05;;;;;;;14.02;8.65;;;;;;;;;;8269429;28;20146;-90
2023/07/05 04:44:09;;;;;;;17.30;9.73;;;;;;;;;;8268730;28;20045;-91
2023/07/05 04:48:13;;;;;;;16.92;9.85;;;;;;;;;;8268834;28;20410;-89
2023/07/05 04:52:17;;;;;;;16.42;9.43;;;;;;;;;;8268432;28;20054;-88
2023/07/05 04:56:20;;;;;;;16.20;10.45;;;;;;;;;;8268446;28;20134;-90
2023/07/05 05:00:24;;;;;;;18.45;9.95;;;;;;;;;;8266542;28;20043;-92
2023/07/05 05:04:28;;;;;;;17.13;10.20;;;;;;;;;;8255593;28;20479;-91
2023/07/05 05:08:31;;;;;;;18.38;11.30;;;;;;;;;;8246222;28;20055;-90
2023/07/05 05:12:34;;;;;;;20.77;11.38;;;;;;;;;;8265505;28;20051;-91
2023/07/05 05:16:37;;;;;;;17.45;11.60;;;;;;;;;;8266934;28;20100;-89
2023/07/05 05:20:42;;;;;;;17.75;11.77;;;;;;;;;;8267399;28;20064;-88
2023/07/05 05:24:44;;;;;;;19.13;12.80;;;;;;;;;;8257721;28;20430;-90
2023/07/05 05:28:47;;;;;;;18.40;12.98;;;;;;;;;;8261358;28;20569;-90
2023/07/05 05:32:50;;;;;;;16.77;12.48;;;;;;;;;;8246810;28;20145;-90
2023/07/05 05:36:55;;;;;;;18.10;12.52;;;;;;;;;;8260872;28;20054;-92
2023/07/05 05:41:02;;;;;;;16.45;11.73;;;;;;;;;;8266643;28;20063;-91
2023/07/05 05:45:06;;;;;;;16.10;12.25;;;;;;;;;;8266787;28;20137;-89
2023/07/05 05:49:09;;;;;;;15.70;12.05;;;;;;;;;;8257077;28;20077;-89
2023/07/05 05:53:13;;;;;;;15.98;11.60;;;;;;;;;;8259276;28;20571;-89
2023/07/05 05:57:16;;;;;;;18.75;11.40;;;;;;;;;;8266749;28;20050;-93
2023/07/05 06:01:19;;;;;;;17.92;11.93;;;;;;;;;;8236342;28;20494;-91
2023/07/05 06:05:22;;;;;;;17.17;11.30;;;;;;;;;;8264997;28;20050;-91
2023/07/05 06:09:26;;;;;;;16.70;12.02;;;;;;;;;;8260920;28;20062;-88
2023/07/05 06:13:30;;;;;;;19.33;11.30;;;;;;;;;;8253725;28;20077;-94
2023/07/05 06:17:34;;;;;;;19.25;12.13;;;;;;;;;;8266370;28;20383;-88
2023/07/05 06:21:37;;;;;;;20.05;14.73;;;;;;;;;;8249237;28;20129;-95
2023/07/05 06:25:41;;;;;;;17.23;12.35;;;;;;;;;;8257729;28;20135;-94
2023/07/05 06:29:44;;;;;;;17.42;12.35;;;;;;;;;;8246247;28;20074;-94
2023/07/05 06:33:47;;;;;;;15.77;11.80;;;;;;;;;;8253852;28;20054;-84
2023/07/05 06:37:50;;;;;;;16.92;12.18;;;;;;;;;;8237309;28;20133;-92
2023/07/05 06:41:54;;;;;;;16.20;11.20;;;;;;;;;;8262431;28;20169;-93
2023/07/05 06:45:58;;;;;;;17.52;11.82;;;;;;;;;;8265037;28;20085;-92
2023/07/05 06:50:00;;;;;;;20.77;11.75;;;;;;;;;;8252717;28;20204;-91
2023/07/05 06:54:03;;;;;;;16.20;11.70;;;;;;;;;;8265273;28;20080;-89
2023/07/05 06:58:08;;;;;;;14.15;10.95;;;;;;;;;;8265733;28;20502;-93
2023/07/05 07:02:11;;;;;;;14.48;11.35;;;;;;;;;;8265671;28;20100;-94
2023/07/05 07:06:14;;;;;;;14.90;12.15;;;;;;;;;;8252353;28;20496;-94
2023/07/05 07:10:17;;;;;;;16.77;12.60;;;;;;;;;;8265946;28;20481;-94
2023/07/05 07:14:21;;;;;;;18.02;12.85;;;;;;;;;;8252566;28;20495;-92
2023/07/05 07:18:24;;;;;;;14.73;11.82;;;;;;;;;;8264744;28;20109;-95
2023/07/05 07:22:27;;;;;;;19.08;14.02;;;;;;;;;;8260435;28;20055;-92
2023/07/05 07:26:30;;;;;;;23.58;16.20;;;;;;;;;;8257307;28;20074;-92
2023/07/05 07:30:35;;;;;;;15.10;11.65;;;;;;;;;;8264378;28;20085;-93
2023/07/05 07:34:38;;;;;;;20.45;16.25;;;;;;;;;;8247301;28;20475;-91
2023/07/05 07:38:42;;;;;;;21.70;14.10;;;;;;;;;;8251539;28;20465;-89
2023/07/05 07:42:44;;;;;;;26.92;18.50;;;;;;;;;;8269538;28;20042;-91
2023/07/05 07:46:49;;;;;;;21.17;12.95;;;;;;;;;;8269479;28;20129;-90
2023/07/05 07:50:52;;;;;;;14.80;11.70;;;;;;;;;;8269349;28;20129;-92
2023/07/05 07:54:56;;;;;;;15.25;12.13;;;;;;;;;;8255745;28;20137;-92
2023/07/05 07:58:59;;;;;;;19.55;15.35;;;;;;;;;;8267163;28;20486;-92
2023/07/05 08:03:04;;;;;;;18.50;11.82;;;;;;;;;;8268887;28;20141;-90
2023/07/05 08:07:07;;;;;;;17.73;12.35;;;;;;;;;;8269033;28;20050;-93
2023/07/05 08:11:11;;;;;;;17.02;12.82;;;;;;;;;;8268952;28;20113;-91
2023/07/05 08:15:13;;;;;;;15.23;11.27;;;;;;;;;;8264821;28;20121;-92
2023/07/05 08:19:20;;;;;;;21.17;13.77;;;;;;;;;;8260172;28;20078;-89
2023/07/05 08:23:23;;;;;;;14.93;11.10;;;;;;;;;;8268621;28;20074;-92
2023/07/05 08:27:26;;;;;;;20.75;11.35;;;;;;;;;;8268426;28;20070;-91
2023/07/05 08:31:30;;;;;;;17.98;11.48;;;;;;;;;;8268077;28;20137;-91
2023/07/05 08:35:34;;;;;;;17.15;10.05;;;;;;;;;;8268223;28;20117;-91
2023/07/05 08:39:37;;;;;;;12.07;8.05;;;;;;;;;;8268106;28;20129;-92
2023/07/05 08:43:44;;;;;;;11.80;7.60;;;;;;;;;;8268173;28;20137;-91
2023/07/05 08:47:49;;;;;;;14.13;6.38;;;;;;;;;;8267928;28;20463;-92
2023/07/05 08:51:56;;;;;;;20.42;9.15;;;;;;;;;;8266418;28;20046;-92
2023/07/05 08:56:05;;;;;;;14.15;6.80;;;;;;;;;;8268140;28;20793;-92
2023/07/05 09:00:13;;;;;;;14.90;7.07;;;;;;;;;;8267634;28;20065;-92
2023/07/05 09:04:25;;;;;;;10.35;7.70;;;;;;;;;;8254359;28;20498;-91
2023/07/05 09:08:38;;;;;;;16.50;8.77;;;;;;;;;;8267176;28;20057;-91
2023/07/05 09:12:50;;;;;;;17.52;8.40;;;;;;;;;;8250214;28;20525;-91
2023/07/05 09:17:00;;;;;;;9.07;5.55;;;;;;;;;;8267293;28;20410;-91
2023/07/05 09:21:14;;;;;;;10.48;6.13;;;;;;;;;;8266639;28;20092;-92
2023/07/05 09:25:21;;;;;;;11.60;6.22;;;;;;;;;;8266657;28;20136;-91
2023/07/05 09:29:30;;;;;;;8.95;6.45;;;;;;;;;;8266679;28;20126;-91
2023/07/05 09:33:38;;;;;;;12.13;6.38;;;;;;;;;;8266209;28;20105;-91
2023/07/05 09:37:50;;;;;;;13.38;7.18;;;;;;;;;;8266018;28;20077;-93
2023/07/05 09:41:58;;;;;;;9.18;5.70;;;;;;;;;;8266281;28;20062;-91
2023/07/05 09:46:04;;;;;;;8.73;4.93;;;;;;;;;;8266033;28;20051;-92
2023/07/05 09:50:16;;;;;;;10.98;5.85;;;;;;;;;;8265853;28;20058;-91
2023/07/05 09:54:24;;;;;;;8.65;5.03;;;;;;;;;;8265551;28;20133;-90
2023/07/05 09:58:28;;;;;;;13.73;4.70;;;;;;;;;;8261307;28;20054;-89
2023/07/05 10:02:33;;;;;;;10.05;4.65;;;;;;;;;;8242103;28;20054;-90
2023/07/05 10:06:41;;;;;;;6.57;3.70;;;;;;;;;;8260880;28;20058;-93
2023/07/05 10:10:44;;;;;;;8.02;5.30;;;;;;;;;;8255686;28;20054;-93
2023/07/05 10:14:55;;;;;;;7.93;3.70;;;;;;;;;;8257456;28;20054;-92
2023/07/05 10:18:58;;;;;;;6.22;3.42;;;;;;;;;;8251886;28;20498;-91
2023/07/05 10:23:04;;;;;;;9.48;4.00;;;;;;;;;;8262035;28;20301;-96
2023/07/05 10:27:22;;;;;;;6.82;4.18;;;;;;;;;;8248354;28;20058;-91
2023/07/05 10:31:30;;;;;;;7.05;3.63;;;;;;;;;;8248836;28;20548;-91
2023/07/05 10:35:34;;;;;;;60.60;26.33;;;;;;;;;;8252476;28;20097;-92
2023/07/05 10:39:37;;;;;;;38.00;20.42;;;;;;;;;;8243331;28;20129;-91
2023/07/05 10:43:40;;;;;;;6.90;3.60;;;;;;;;;;8259129;28;20133;-91
2023/07/05 10:47:47;;;;;;;6.15;3.80;;;;;;;;;;8254501;28;20486;-91
2023/07/05 10:56:20;;;;;;;7.80;4.40;;;;;;;;;;8263095;28;20061;-91
2023/07/05 11:00:37;;;;;;;7.80;3.97;;;;;;;;;;8261913;28;20086;-95
2023/07/05 11:04:46;;;;;;;31.85;14.80;;;;;;;;;;8248014;28;20082;-91
2023/07/05 11:08:49;;;;;;;8.85;4.68;;;;;;;;;;8252335;28;20054;-90
2023/07/05 11:12:53;;;;;;;7.65;4.18;;;;;;;;;;8261123;28;20058;-89
2023/07/05 11:16:57;;;;;;;11.32;7.25;;;;;;;;;;8261201;28;20116;-91
2023/07/05 11:21:02;;;;;;;8.10;4.22;;;;;;;;;;8267133;28;20077;-92
2023/07/05 11:25:09;;;;;;;7.22;4.03;;;;;;;;;;8266492;28;20058;-92
2023/07/05 11:29:47;;;;;;;25.85;10.90;;;;;;;;;;8259967;28;20070;-92
2023/07/05 11:34:31;;;;;;;6.07;3.92;;;;;;;;;;8251056;28;20518;-93
2023/07/05 11:39:05;;;;;;;7.70;3.50;;;;;;;;;;8259933;28;20495;-88
2023/07/05 11:43:23;;;;;;;11.30;4.70;;;;;;;;;;8252169;28;20055;-93
2023/07/05 11:47:46;;;;;;;26.27;10.93;;;;;;;;;;8263742;28;20058;-88
2023/07/05 11:51:51;;;;;;;21.58;7.15;;;;;;;;;;8256913;28;20709;-90
2023/07/05 11:55:56;;;;;;;12.52;6.03;;;;;;;;;;8263699;28;20058;-91
2023/07/05 12:00:17;;;;;;;6.65;4.03;;;;;;;;;;8258001;28;20058;-89
2023/07/05 12:04:22;;;;;;;13.02;5.40;;;;;;;;;;8250271;28;20078;-89
2023/07/05 12:08:31;;;;;;;11.57;4.47;;;;;;;;;;8245888;28;20419;-91
2023/07/05 12:12:40;;;;;;;8.73;3.93;;;;;;;;;;8259551;28;20482;-87
2023/07/05 12:16:44;;;;;;;12.70;4.80;;;;;;;;;;8252253;28;20150;-88
2023/07/05 12:20:50;;;;;;;9.02;4.18;;;;;;;;;;8237920;28;20062;-89
2023/07/05 12:24:57;;;;;;;12.18;4.78;;;;;;;;;;8263467;28;20069;-84
2023/07/05 12:29:03;;;;;;;8.70;4.05;;;;;;;;;;8263656;28;20058;-85
2023/07/05 12:33:18;;;;;;;11.05;5.00;;;;;;;;;;8239914;28;20090;-88
2023/07/05 12:37:31;;;;;;;6.80;4.25;;;;;;;;;;8244871;28;20059;-88
2023/07/05 12:41:35;;;;;;;9.60;4.20;;;;;;;;;;8254877;28;20081;-90
2023/07/05 12:45:41;;;;;;;10.95;4.10;;;;;;;;;;8254243;28;20050;-89
2023/07/05 12:49:44;;;;;;;7.60;4.18;;;;;;;;;;8252028;28;20137;-89
2023/07/05 12:53:47;;;;;;;10.85;4.03;;;;;;;;;;8247354;28;20132;-87
2023/07/05 12:57:52;;;;;;;7.22;4.40;;;;;;;;;;8258839;28;20226;-89
2023/07/05 13:01:56;;;;;;;8.50;4.50;;;;;;;;;;8260592;28;20133;-90
2023/07/05 13:06:00;;;;;;;6.85;3.88;;;;;;;;;;8249946;28;20145;-90
2023/07/05 13:10:07;;;;;;;10.68;4.65;;;;;;;;;;8263083;28;20062;-88
2023/07/05 13:14:25;;;;;;;7.82;4.15;;;;;;;;;;8262732;28;20134;-89
2023/07/05 13:18:32;;;;;;;9.82;3.80;;;;;;;;;;8259019;28;20046;-88
2023/07/05 13:22:46;;;;;;;9.52;4.00;;;;;;;;;;8256514;28;20050;-90
2023/07/05 13:26:49;;;;;;;7.13;3.90;;;;;;;;;;8244663;28;20051;-92
2023/07/05 13:30:56;;;;;;;8.35;3.75;;;;;;;;;;8253211;28;20055;-89
2023/07/05 13:35:00;;;;;;;7.82;3.70;;;;;;;;;;8250311;28;20086;-90
2023/07/05 13:39:04;;;;;;;6.22;3.70;;;;;;;;;;8259301;28;20069;-89
2023/07/05 13:43:09;;;;;;;7.30;3.25;;;;;;;;;;8255590;28;20157;-90
2023/07/05 13:47:12;;;;;;;8.57;3.90;;;;;;;;;;8253464;28;20065;-90
2023/07/05 13:51:25;;;;;;;7.30;3.42;;;;;;;;;;8241165;28;20123;-90
2023/07/05 13:55:27;;;;;;;6.18;3.22;;;;;;;;;;8255147;28;20072;-90
2023/07/05 13:59:30;;;;;;;8.57;4.10;;;;;;;;;;8258909;28;20426;-90
2023/07/05 14:03:34;;;;;;;6.22;3.42;;;;;;;;;;8258822;28;20058;-85
2023/07/05 14:07:40;;;;;;;8.23;4.00;;;;;;;;;;8251241;28;20701;-90
2023/07/05 14:11:46;;;;;;;6.93;4.07;;;;;;;;;;8252019;28;20181;-89
2023/07/05 14:15:49;;;;;;;7.03;4.28;;;;;;;;;;8245505;28;20102;-90
2023/07/05 14:19:52;;;;;;;8.70;3.40;;;;;;;;;;8240682;28;20454;-85
2023/07/05 14:23:56;;;;;;;6.57;3.42;;;;;;;;;;8246187;28;20520;-86
2023/07/05 14:28:01;;;;;;;10.38;4.10;;;;;;;;;;8260296;28;20054;-91
2023/07/05 14:32:12;;;;;;;8.80;3.95;;;;;;;;;;8243105;28;20132;-90
2023/07/05 14:36:16;;;;;;;7.25;4.70;;;;;;;;;;8250211;28;20086;-82
2023/07/05 14:40:25;;;;;;;8.98;4.18;;;;;;;;;;8249141;28;20058;-82
2023/07/05 14:44:28;;;;;;;9.35;4.07;;;;;;;;;;8245517;28;20415;-89
2023/07/05 14:48:32;;;;;;;8.85;4.68;;;;;;;;;;8243063;28;20051;-83
2023/07/05 14:52:37;;;;;;;6.40;3.80;;;;;;;;;;8254892;28;20134;-83
2023/07/05 14:56:43;;;;;;;7.07;3.47;;;;;;;;;;8253203;28;20051;-86
2023/07/05 15:00:46;;;;;;;7.30;4.53;;;;;;;;;;8256121;28;20054;-90
2023/07/05 15:04:49;;;;;;;7.97;3.90;;;;;;;;;;8263391;28;20077;-86
2023/07/05 15:08:52;;;;;;;7.95;4.10;;;;;;;;;;8264423;28;20137;-88
2023/07/05 15:12:57;;;;;;;9.90;3.83;;;;;;;;;;8264530;28;20055;-86
2023/07/05 15:17:00;;;;;;;10.25;5.15;;;;;;;;;;8264196;28;20527;-85
2023/07/05 15:21:03;;;;;;;9.75;5.05;;;;;;;;;;8264080;28;20133;-89
2023/07/05 15:25:06;;;;;;;7.45;4.43;;;;;;;;;;8264107;28;20058;-87
2023/07/05 15:29:11;;;;;;;7.00;3.85;;;;;;;;;;8260731;28;20062;-90
2023/07/05 15:33:14;;;;;;;7.55;4.85;;;;;;;;;;8245099;28;20050;-85
2023/07/05 15:37:17;;;;;;;7.85;4.15;;;;;;;;;;8232497;28;20435;-90
2023/07/05 15:41:20;;;;;;;6.78;4.15;;;;;;;;;;8238239;28;20051;-81
2023/07/05 15:45:25;;;;;;;8.27;4.20;;;;;;;;;;8257313;28;20081;-83
2023/07/05 15:49:28;;;;;;;7.18;4.28;;;;;;;;;;8245369;28;20141;-88
2023/07/05 15:53:31;;;;;;;6.93;3.83;;;;;;;;;;8239038;28;20057;-90
2023/07/05 15:57:34;;;;;;;9.85;4.28;;;;;;;;;;8237876;28;20422;-85
2023/07/05 16:01:39;;;;;;;7.20;4.30;;;;;;;;;;8237670;28;20047;-89
2023/07/05 16:05:43;;;;;;;18.85;9.48;;;;;;;;;;8240725;28;20391;-89
2023/07/05 16:09:46;;;;;;;8.60;4.00;;;;;;;;;;8253175;28;20093;-89
2023/07/05 16:13:49;;;;;;;8.25;4.00;;;;;;;;;;8255265;28;20862;-82
2023/07/05 16:17:54;;;;;;;15.13;7.72;;;;;;;;;;8268380;28;20058;-88
2023/07/05 16:21:57;;;;;;;12.60;5.05;;;;;;;;;;8239878;28;20410;-85
2023/07/05 16:26:00;;;;;;;7.63;4.32;;;;;;;;;;8258411;28;20490;-86
2023/07/05 16:30:03;;;;;;;9.55;4.40;;;;;;;;;;8259562;28;20050;-85
2023/07/05 16:34:08;;;;;;;7.95;4.22;;;;;;;;;;8237540;28;20078;-88
2023/07/05 16:38:11;;;;;;;7.78;4.15;;;;;;;;;;8240294;28;20057;-88
2023/07/05 16:42:15;;;;;;;8.75;4.20;;;;;;;;;;8261897;28;20054;-87
2023/07/05 16:46:19;;;;;;;7.38;4.20;;;;;;;;;;8258473;28;20471;-88
2023/07/05 16:50:24;;;;;;;9.57;4.70;;;;;;;;;;8261582;28;20053;-88
2023/07/05 16:54:27;;;;;;;7.22;4.28;;;;;;;;;;8242939;28;20050;-87
2023/07/05 16:58:30;;;;;;;7.47;4.40;;;;;;;;;;8243206;28;20054;-89
2023/07/05 17:02:34;;;;;;;9.20;4.93;;;;;;;;;;8246702;28;20089;-88
2023/07/05 17:06:39;;;;;;;7.35;4.68;;;;;;;;;;8256449;28;20067;-89
2023/07/05 17:10:43;;;;;;;9.02;5.05;;;;;;;;;;8259141;28;20076;-87
2023/07/05 17:14:46;;;;;;;14.77;4.20;;;;;;;;;;8259735;28;20526;-86
2023/07/05 17:18:49;;;;;;;7.68;3.33;;;;;;;;;;8255638;28;20058;-88
2023/07/05 17:22:54;;;;;;;6.90;2.97;;;;;;;;;;8252458;28;20065;-89
2023/07/05 17:26:58;;;;;;;5.95;2.97;;;;;;;;;;8256563;28;20574;-87
2023/07/05 17:31:06;;;;;;;5.40;2.95;;;;;;;;;;8248536;28;20081;-88
2023/07/05 17:35:10;;;;;;;6.75;3.03;;;;;;;;;;8249507;28;20136;-90
2023/07/05 17:39:17;;;;;;;5.68;2.80;;;;;;;;;;8245059;28;20051;-83
2023/07/05 17:43:22;;;;;;;6.60;2.75;;;;;;;;;;8249834;28;20076;-84
2023/07/05 17:47:25;;;;;;;9.10;2.90;;;;;;;;;;8258365;28;20046;-89
2023/07/05 17:51:30;;;;;;;7.95;2.67;;;;;;;;;;8243436;28;20055;-81
2023/07/05 17:55:37;;;;;;;5.38;2.47;;;;;;;;;;8248558;28;20046;-86
2023/07/05 17:59:43;;;;;;;5.45;2.55;;;;;;;;;;8239777;28;20477;-83
2023/07/05 18:03:47;;;;;;;8.02;2.80;;;;;;;;;;8260750;28;20049;-82
2023/07/05 18:07:51;;;;;;;4.50;2.47;;;;;;;;;;8251110;28;20058;-85
2023/07/05 18:11:57;;;;;;;4.63;2.50;;;;;;;;;;8263083;28;20070;-88
2023/07/05 18:16:01;;;;;;;4.22;2.13;;;;;;;;;;8262694;28;20153;-85
2023/07/05 18:20:05;;;;;;;6.53;2.42;;;;;;;;;;8254614;28;20402;-87
2023/07/05 18:24:09;;;;;;;3.65;2.25;;;;;;;;;;8262585;28;20058;-87
2023/07/05 18:28:15;;;;;;;5.45;1.90;;;;;;;;;;8250104;28;20806;-86
2023/07/05 18:32:19;;;;;;;4.28;2.15;;;;;;;;;;8244079;28;20511;-84
2023/07/05 18:36:22;;;;;;;3.63;2.28;;;;;;;;;;8243696;28;20057;-88
2023/07/05 18:40:28;;;;;;;4.55;2.60;;;;;;;;;;8255305;28;20137;-86
2023/07/05 18:44:33;;;;;;;8.30;3.47;;;;;;;;;;8250684;28;20046;-88
2023/07/05 18:48:37;;;;;;;5.32;2.97;;;;;;;;;;8234415;28;20093;-88
2023/07/05 18:52:42;;;;;;;8.20;3.15;;;;;;;;;;8246476;28;20133;-87
2023/07/05 18:56:47;;;;;;;4.70;2.72;;;;;;;;;;8253689;28;20082;-87
2023/07/05 19:00:58;;;;;;;6.85;2.88;;;;;;;;;;8248423;28;20065;-87
2023/07/05 19:05:02;;;;;;;5.65;3.00;;;;;;;;;;8254799;28;20060;-86
2023/07/05 19:09:07;;;;;;;7.85;3.15;;;;;;;;;;8239124;28;20061;-87
2023/07/05 19:13:13;;;;;;;9.30;3.60;;;;;;;;;;8243955;28;20055;-84
2023/07/05 19:17:19;;;;;;;7.72;3.25;;;;;;;;;;8244504;28;20053;-87
2023/07/05 19:21:24;;;;;;;6.15;3.53;;;;;;;;;;8260241;28;20082;-88
2023/07/05 19:25:28;;;;;;;7.75;3.55;;;;;;;;;;8256165;28;20060;-88
2023/07/05 19:29:32;;;;;;;9.45;3.88;;;;;;;;;;8260251;28;20054;-87
2023/07/05 19:33:37;;;;;;;9.52;4.38;;;;;;;;;;8257831;28;20502;-88
2023/07/05 19:37:41;;;;;;;8.55;4.03;;;;;;;;;;8267442;28;20136;-87
2023/07/05 19:41:45;;;;;;;6.30;3.92;;;;;;;;;;8269128;28;20054;-87
2023/07/05 19:45:51;;;;;;;10.40;4.75;;;;;;;;;;8269897;28;20486;-87
2023/07/05 19:49:57;;;;;;;8.25;3.90;;;;;;;;;;8270209;28;20112;-87
2023/07/05 19:54:01;;;;;;;7.82;4.20;;;;;;;;;;8268823;28;20065;-87
2023/07/05 19:58:07;;;;;;;7.75;3.75;;;;;;;;;;8268470;28;20046;-87
2023/07/05 20:02:13;;;;;;;8.77;4.22;;;;;;;;;;8249154;28;20097;-83
2023/07/05 20:06:20;;;;;;;7.45;3.72;;;;;;;;;;8251701;28;20134;-85
2023/07/05 20:10:23;;;;;;;6.82;3.97;;;;;;;;;;8239813;28;20051;-86
2023/07/05 20:14:29;;;;;;;9.02;4.05;;;;;;;;;;8256851;28;20108;-83
2023/07/05 20:18:35;;;;;;;11.52;4.38;;;;;;;;;;8268131;28;20046;-85
2023/07/05 20:22:41;;;;;;;6.97;3.53;;;;;;;;;;8272049;28;20057;-86
2023/07/05 20:26:45;;;;;;;7.88;3.92;;;;;;;;;;8281928;28;20053;-85
2023/07/05 20:30:57;;;;;;;6.80;3.63;;;;;;;;;;8267880;28;20062;-86
2023/07/05 20:35:01;;;;;;;12.52;3.60;;;;;;;;;;8267924;28;20410;-86
2023/07/05 20:39:07;;;;;;;6.75;3.65;;;;;;;;;;8268468;28;20413;-86
2023/07/05 20:43:11;;;;;;;5.63;3.90;;;;;;;;;;8267800;28;20065;-86
2023/07/05 20:47:15;;;;;;;10.25;3.22;;;;;;;;;;8262862;28;20050;-87
2023/07/05 20:51:19;;;;;;;8.52;3.10;;;;;;;;;;8274951;28;20043;-89
2023/07/05 20:55:23;;;;;;;5.82;2.42;;;;;;;;;;8254748;28;20109;-90
2023/07/05 20:59:26;;;;;;;5.43;2.50;;;;;;;;;;8267150;28;20097;-88
2023/07/05 21:03:29;;;;;;;5.97;2.47;;;;;;;;;;8271744;28;20054;-91
2023/07/05 21:07:33;;;;;;;3.83;2.35;;;;;;;;;;8267731;28;20054;-91
2023/07/05 21:11:43;;;;;;;6.90;2.58;;;;;;;;;;8259159;28;20047;-92
2023/07/05 21:15:49;;;;;;;5.10;2.53;;;;;;;;;;8266743;28;20054;-91
2023/07/05 21:19:52;;;;;;;6.90;2.28;;;;;;;;;;8257886;28;20499;-91
2023/07/05 21:23:55;;;;;;;5.32;2.47;;;;;;;;;;8267952;28;20129;-90
2023/07/05 21:28:00;;;;;;;4.90;2.30;;;;;;;;;;8267340;28;20058;-91
2023/07/05 21:32:03;;;;;;;4.55;2.47;;;;;;;;;;8250265;28;20486;-91
2023/07/05 21:36:07;;;;;;;5.32;2.70;;;;;;;;;;8264905;28;20077;-92
2023/07/05 21:40:12;;;;;;;6.45;3.08;;;;;;;;;;8263290;28;20495;-90
2023/07/05 21:44:16;;;;;;;5.32;3.15;;;;;;;;;;8231077;28;20049;-90
2023/07/05 21:48:19;;;;;;;6.28;3.72;;;;;;;;;;8267081;28;20506;-90
2023/07/05 21:52:23;;;;;;;6.55;3.78;;;;;;;;;;8249878;28;20054;-90
2023/07/05 21:56:29;;;;;;;8.63;3.97;;;;;;;;;;8266998;28;20145;-91
2023/07/05 22:00:33;;;;;;;7.03;3.88;;;;;;;;;;8266546;28;20515;-90
2023/07/05 22:04:37;;;;;;;7.15;3.83;;;;;;;;;;8266932;28;20140;-90
2023/07/05 22:08:40;;;;;;;5.70;4.00;;;;;;;;;;8247759;28;20051;-91
2023/07/05 22:12:46;;;;;;;10.93;4.70;;;;;;;;;;8261058;28;20104;-90
2023/07/05 22:16:50;;;;;;;8.27;4.47;;;;;;;;;;8262271;28;20437;-91
2023/07/05 22:20:53;;;;;;;5.70;3.85;;;;;;;;;;8273460;28;20062;-90
2023/07/05 22:24:56;;;;;;;6.22;3.95;;;;;;;;;;8261527;28;20051;-91
2023/07/05 22:28:59;;;;;;;7.15;4.32;;;;;;;;;;8265904;28;20096;-91
2023/07/05 22:33:03;;;;;;;6.85;4.07;;;;;;;;;;8254137;28;20082;-91
2023/07/05 22:37:06;;;;;;;7.60;4.32;;;;;;;;;;8266989;28;20189;-90
2023/07/05 22:41:10;;;;;;;8.20;4.07;;;;;;;;;;8254349;28;20145;-92
2023/07/05 22:45:13;;;;;;;9.43;4.30;;;;;;;;;;8277580;28;20071;-92
2023/07/05 22:49:17;;;;;;;8.00;4.05;;;;;;;;;;8279212;28;20545;-93
2023/07/05 22:53:20;;;;;;;9.52;3.92;;;;;;;;;;8263801;28;20124;-90
2023/07/05 22:57:23;;;;;;;10.10;4.63;;;;;;;;;;8253466;28;20057;-91
2023/07/05 23:01:26;;;;;;;7.75;4.22;;;;;;;;;;8274388;28;20598;-91
2023/07/05 23:05:31;;;;;;;6.82;3.85;;;;;;;;;;8268239;28;20051;-90
2023/07/05 23:09:34;;;;;;;8.73;4.40;;;;;;;;;;8265461;28;20125;-87
2023/07/05 23:13:42;;;;;;;7.57;4.63;;;;;;;;;;8274896;28;20058;-92
2023/07/05 23:17:45;;;;;;;6.57;4.22;;;;;;;;;;8284648;28;20055;-92
2023/07/05 23:21:50;;;;;;;10.52;4.82;;;;;;;;;;8275344;28;20081;-92
2023/07/05 23:25:53;;;;;;;7.45;4.47;;;;;;;;;;8279935;28;20065;-92
2023/07/05 23:29:55;;;;;;;6.72;4.78;;;;;;;;;;8244029;28;20051;-91
2023/07/05 23:33:59;;;;;;;9.18;5.10;;;;;;;;;;8288568;28;20062;-89
2023/07/05 23:38:03;;;;;;;9.35;5.40;;;;;;;;;;8276119;28;20509;-92
2023/07/05 23:42:07;;;;;;;9.45;6.32;;;;;;;;;;8271807;28;20069;-91
2023/07/05 23:46:10;;;;;;;9.23;5.47;;;;;;;;;;8287692;28;20061;-92
2023/07/05 23:50:13;;;;;;;11.88;5.93;;;;;;;;;;8276834;28;20052;-91
2023/07/05 23:54:17;;;;;;;11.18;6.18;;;;;;;;;;8280965;28;20073;-91
2023/07/05 23:58:22;;;;;;;9.93;6.07;;;;;;;;;;8270163;28;20129;-82
